createdAt,value
2019-04-25T00:00:47.484Z,47.24
2019-04-25T00:04:17.902Z,47.17
2019-04-25T00:06:52.037Z,47.56
2019-04-25T00:09:25.878Z,48.09
2019-04-25T00:11:55.219Z,47.94
2019-04-25T00:14:27.254Z,47.85
2019-04-25T00:16:56.777Z,47.75
2019-04-25T00:19:26.030Z,47.77
2019-04-25T00:21:57.053Z,47.74
2019-04-25T00:24:28.085Z,47.72
2019-04-25T00:26:57.260Z,47.71
2019-04-25T00:29:26.576Z,47.67
2019-04-25T00:31:56.646Z,47.67
2019-04-25T00:34:26.995Z,47.75
2019-04-25T00:36:56.320Z,47.70
2019-04-25T00:39:25.917Z,47.66
2019-04-25T00:41:55.317Z,47.54
2019-04-25T00:44:25.994Z,47.45
2019-04-25T00:46:56.819Z,47.36
2019-04-25T00:49:26.245Z,47.34
2019-04-25T00:51:55.564Z,47.41
2019-04-25T00:54:33.819Z,47.35
2019-04-25T00:58:06.896Z,47.22
2019-04-25T01:00:41.562Z,47.29
2019-04-25T01:03:12.715Z,47.77
2019-04-25T01:05:42.490Z,47.71
2019-04-25T01:08:13.094Z,47.67
2019-04-25T01:10:42.310Z,47.59
2019-04-25T01:13:11.693Z,47.49
2019-04-25T01:15:42.454Z,47.40
2019-04-25T01:18:12.331Z,47.35
2019-04-25T01:20:43.342Z,47.33
2019-04-25T01:23:13.757Z,47.27
2019-04-25T01:25:44.721Z,47.22
2019-04-25T01:28:14.371Z,47.19
2019-04-25T01:30:43.926Z,47.01
2019-04-25T01:33:13.583Z,47.12
2019-04-25T01:35:47.435Z,47.17
2019-04-25T01:38:21.316Z,47.04
2019-04-25T01:40:54.445Z,47.02
2019-04-25T01:43:29.264Z,46.96
2019-04-25T01:46:00.167Z,46.90
2019-04-25T01:48:30.345Z,46.97
2019-04-25T01:50:59.618Z,46.89
2019-04-25T01:53:28.845Z,46.86
2019-04-25T01:56:04.040Z,46.90
2019-04-25T01:58:31.299Z,46.90
2019-04-25T02:01:00.564Z,46.93
2019-04-25T02:03:30.004Z,46.88
2019-04-25T02:05:59.401Z,46.78
2019-04-25T02:08:28.630Z,46.92
2019-04-25T02:11:43.968Z,47.02
2019-04-25T02:14:13.753Z,47.05
2019-04-25T02:16:43.951Z,47.32
2019-04-25T02:19:14.540Z,47.35
2019-04-25T02:21:45.375Z,47.46
2019-04-25T02:24:14.602Z,47.33
2019-04-25T02:26:43.909Z,47.35
2019-04-25T02:29:13.632Z,47.43
2019-04-25T02:31:45.062Z,47.41
2019-04-25T02:34:17.782Z,47.45
2019-04-25T02:36:46.981Z,47.55
2019-04-25T02:39:17.767Z,47.67
2019-04-25T02:41:47.018Z,47.66
2019-04-25T02:44:16.153Z,47.56
2019-04-25T02:47:06.472Z,47.58
2019-04-25T02:49:41.984Z,47.48
2019-04-25T02:52:18.793Z,47.61
2019-04-25T02:54:49.892Z,47.68
2019-04-25T02:57:19.282Z,47.75
2019-04-25T02:59:50.504Z,47.64
2019-04-25T03:02:20.030Z,47.55
2019-04-25T03:04:49.235Z,47.52
2019-04-25T03:07:18.620Z,47.48
2019-04-25T03:09:47.878Z,47.41
2019-04-25T03:12:29.839Z,47.42
2019-04-25T03:14:48.098Z,47.45
2019-04-25T03:17:17.548Z,47.60
2019-04-25T03:19:54.220Z,47.68
2019-04-25T03:22:26.703Z,47.72
2019-04-25T03:24:59.685Z,47.79
2019-04-25T03:27:28.862Z,47.84
2019-04-25T03:29:58.969Z,47.83
2019-04-25T03:32:29.839Z,47.78
2019-04-25T03:34:59.083Z,47.72
2019-04-25T03:37:28.373Z,47.63
2019-04-25T03:39:57.724Z,47.61
2019-04-25T03:42:28.504Z,47.59
2019-04-25T03:44:58.636Z,47.59
2019-04-25T03:47:27.866Z,47.71
2019-04-25T03:49:57.349Z,47.76
2019-04-25T03:52:26.654Z,47.72
2019-04-25T03:54:56.854Z,47.70
2019-04-25T03:57:26.302Z,47.69
2019-04-25T03:59:55.550Z,47.67
2019-04-25T04:02:25.264Z,47.63
2019-04-25T04:04:54.766Z,47.46
2019-04-25T04:07:24.493Z,47.38
2019-04-25T04:09:55.101Z,47.32
2019-04-25T04:12:25.129Z,47.24
2019-04-25T04:14:56.291Z,47.23
2019-04-25T04:17:27.627Z,47.17
2019-04-25T04:20:03.820Z,47.14
2019-04-25T04:22:53.304Z,46.95
2019-04-25T04:25:23.822Z,46.89
2019-04-25T04:27:53.846Z,46.96
2019-04-25T04:30:24.138Z,46.94
2019-04-25T04:32:55.047Z,46.90
2019-04-25T04:35:25.470Z,46.89
2019-04-25T04:37:55.543Z,46.94
2019-04-25T04:40:25.400Z,46.88
2019-04-25T04:42:55.422Z,46.86
2019-04-25T04:45:25.367Z,46.73
2019-04-25T04:47:55.233Z,46.71
2019-04-25T04:50:25.390Z,46.73
2019-04-25T04:52:56.459Z,46.77
2019-04-25T04:55:26.316Z,46.91
2019-04-25T04:57:56.236Z,47.03
2019-04-25T05:00:27.473Z,47.03
2019-04-25T05:02:59.037Z,46.95
2019-04-25T05:05:30.748Z,47.02
2019-04-25T05:08:03.787Z,46.75
2019-04-25T05:10:34.234Z,46.62
2019-04-25T05:13:04.366Z,46.83
2019-04-25T05:15:34.568Z,46.84
2019-04-25T05:18:04.251Z,46.83
2019-04-25T05:20:35.635Z,46.70
2019-04-25T05:23:05.640Z,46.47
2019-04-25T05:25:35.737Z,46.44
2019-04-25T05:28:06.058Z,46.52
2019-04-25T05:30:37.420Z,46.56
2019-04-25T05:33:07.402Z,46.48
2019-04-25T05:35:38.678Z,46.08
2019-04-25T05:38:09.235Z,45.71
2019-04-25T05:40:50.565Z,45.48
2019-04-25T05:43:21.053Z,45.18
2019-04-25T05:45:51.049Z,45.07
2019-04-25T05:48:21.156Z,45.28
2019-04-25T05:50:51.635Z,45.14
2019-04-25T05:53:22.410Z,44.98
2019-04-25T05:55:54.077Z,44.74
2019-04-25T05:58:25.707Z,44.65
2019-04-25T06:00:59.217Z,44.89
2019-04-25T06:03:29.295Z,44.89
2019-04-25T06:05:59.295Z,44.75
2019-04-25T06:08:31.012Z,44.78
2019-04-25T06:11:05.760Z,44.77
2019-04-25T06:13:39.011Z,44.87
2019-04-25T06:16:10.911Z,44.75
2019-04-25T06:18:43.878Z,44.61
2019-04-25T06:21:14.926Z,44.50
2019-04-25T06:24:04.351Z,44.60
2019-04-25T06:26:39.718Z,44.63
2019-04-25T06:29:07.959Z,44.80
2019-04-25T06:31:37.796Z,44.91
2019-04-25T06:34:09.004Z,45.07
2019-04-25T06:36:39.229Z,44.91
2019-04-25T06:39:09.796Z,44.93
2019-04-25T06:41:41.245Z,44.87
2019-04-25T06:44:13.670Z,44.93
2019-04-25T06:46:50.398Z,45.03
2019-04-25T06:49:25.509Z,45.03
2019-04-25T06:51:57.617Z,45.17
2019-04-25T06:54:29.542Z,45.22
2019-04-25T06:56:59.679Z,45.28
2019-04-25T06:59:34.419Z,45.12
2019-04-25T07:02:05.439Z,45.14
2019-04-25T07:04:35.809Z,44.88
2019-04-25T07:07:12.091Z,44.76
2019-04-25T07:09:37.929Z,44.94
2019-04-25T07:12:07.863Z,44.62
2019-04-25T07:14:37.969Z,44.35
2019-04-25T07:17:08.202Z,43.80
2019-04-25T07:19:38.582Z,43.81
2019-04-25T07:22:09.589Z,43.97
2019-04-25T07:24:39.870Z,43.56
2019-04-25T07:27:30.489Z,43.43
2019-04-25T07:30:26.706Z,43.26
2019-04-25T07:32:47.768Z,43.25
2019-04-25T07:35:17.820Z,43.21
2019-04-25T07:37:48.085Z,43.08
2019-04-25T07:40:17.961Z,42.94
2019-04-25T07:42:47.736Z,42.90
2019-04-25T07:45:19.944Z,42.82
2019-04-25T07:47:49.753Z,43.13
2019-04-25T07:50:20.003Z,43.17
2019-04-25T07:52:50.388Z,43.44
2019-04-25T07:55:23.671Z,43.38
2019-04-25T07:57:54.321Z,43.48
2019-04-25T08:00:27.272Z,43.31
2019-04-25T08:02:59.774Z,43.43
2019-04-25T08:05:30.238Z,43.63
2019-04-25T08:08:00.885Z,43.61
2019-04-25T08:10:34.713Z,43.40
2019-04-25T08:13:05.176Z,43.38
2019-04-25T08:15:46.085Z,42.85
2019-04-25T08:18:16.280Z,42.87
2019-04-25T08:20:47.472Z,43.02
2019-04-25T08:23:20.267Z,42.50
2019-04-25T08:25:50.820Z,41.96
2019-04-25T08:28:21.538Z,41.32
2019-04-25T08:30:54.836Z,40.26
2019-04-25T08:33:24.310Z,39.11
2019-04-25T08:36:04.538Z,39.17
2019-04-25T08:38:26.880Z,39.36
2019-04-25T08:40:56.949Z,39.03
2019-04-25T08:43:27.523Z,39.30
2019-04-25T08:45:57.747Z,39.51
2019-04-25T08:48:29.015Z,40.05
2019-04-25T08:51:03.747Z,40.36
2019-04-25T08:53:36.581Z,40.54
2019-04-25T08:56:14.980Z,41.10
2019-04-25T08:59:03.878Z,40.79
2019-04-25T09:01:29.480Z,40.93
2019-04-25T09:04:03.605Z,41.42
2019-04-25T09:06:35.060Z,41.29
2019-04-25T09:09:07.215Z,41.01
2019-04-25T09:11:38.894Z,41.78
2019-04-25T09:14:10.212Z,42.04
2019-04-25T09:16:41.768Z,41.47
2019-04-25T09:19:14.251Z,41.76
2019-04-25T09:21:49.347Z,41.74
2019-04-25T09:24:19.643Z,41.61
2019-04-25T09:26:49.668Z,41.52
2019-04-25T09:29:20.917Z,41.10
2019-04-25T09:31:51.556Z,41.11
2019-04-25T09:34:23.693Z,40.55
2019-04-25T09:36:54.370Z,40.43
2019-04-25T09:39:35.699Z,40.00
2019-04-25T09:42:09.242Z,38.78
2019-04-25T09:44:46.998Z,38.67
2019-04-25T09:47:17.129Z,37.96
2019-04-25T09:49:48.937Z,37.83
2019-04-25T09:52:21.030Z,37.94
2019-04-25T09:54:55.340Z,37.71
2019-04-25T09:57:33.287Z,37.49
2019-04-25T10:00:08.908Z,37.16
2019-04-25T10:02:40.226Z,36.13
2019-04-25T10:05:10.783Z,35.93
2019-04-25T10:07:43.240Z,36.62
2019-04-25T10:10:13.543Z,36.94
2019-04-25T10:12:44.327Z,37.05
2019-04-25T10:15:37.539Z,37.02
2019-04-25T10:18:10.311Z,37.51
2019-04-25T10:20:41.179Z,37.09
2019-04-25T10:23:13.629Z,36.76
2019-04-25T10:25:45.020Z,37.85
2019-04-25T10:28:15.554Z,38.94
2019-04-25T10:30:45.770Z,39.42
2019-04-25T10:33:16.477Z,38.96
2019-04-25T10:35:53.129Z,39.86
2019-04-25T10:38:18.481Z,39.66
2019-04-25T10:40:50.267Z,38.49
2019-04-25T10:43:21.822Z,38.38
2019-04-25T10:45:53.396Z,38.88
2019-04-25T10:48:24.204Z,39.40
2019-04-25T10:50:55.655Z,39.27
2019-04-25T10:53:26.442Z,39.33
2019-04-25T10:55:58.787Z,39.31
2019-04-25T10:58:29.856Z,38.86
2019-04-25T11:01:00.602Z,37.98
2019-04-25T11:03:45.462Z,38.09
2019-04-25T11:06:18.113Z,38.48
2019-04-25T11:08:49.133Z,38.05
2019-04-25T11:11:21.641Z,38.49
2019-04-25T11:13:52.506Z,38.88
2019-04-25T11:16:24.260Z,39.07
2019-04-25T11:18:55.144Z,38.52
2019-04-25T11:21:27.610Z,38.71
2019-04-25T11:23:56.525Z,38.73
2019-04-25T11:26:27.087Z,38.36
2019-04-25T11:28:58.581Z,38.32
2019-04-25T11:31:30.629Z,38.42
2019-04-25T11:34:01.349Z,38.49
2019-04-25T11:36:31.932Z,38.19
2019-04-25T11:39:07.855Z,37.85
2019-04-25T11:41:38.426Z,37.90
2019-04-25T11:44:08.918Z,37.35
2019-04-25T11:46:39.485Z,37.36
2019-04-25T11:49:10.181Z,38.03
2019-04-25T11:51:40.283Z,37.01
2019-04-25T11:54:11.551Z,36.72
2019-04-25T11:56:43.247Z,36.91
2019-04-25T11:59:13.738Z,35.64
2019-04-25T12:01:47.771Z,35.96
2019-04-25T12:04:17.901Z,35.86
2019-04-25T12:06:48.364Z,35.82
2019-04-25T12:09:19.524Z,36.34
2019-04-25T12:11:50.257Z,36.79
2019-04-25T12:14:20.645Z,37.29
2019-04-25T12:16:53.210Z,37.14
2019-04-25T12:19:34.482Z,37.93
2019-04-25T12:21:58.187Z,38.45
2019-04-25T12:24:28.464Z,38.13
2019-04-25T12:26:58.806Z,37.64
2019-04-25T12:29:29.319Z,38.54
2019-04-25T12:32:00.074Z,37.90
2019-04-25T12:34:30.599Z,38.22
2019-04-25T12:37:01.066Z,38.51
2019-04-25T12:39:31.923Z,38.28
2019-04-25T12:42:02.002Z,38.06
2019-04-25T12:44:49.698Z,37.61
2019-04-25T12:47:21.867Z,37.21
2019-04-25T12:49:51.554Z,37.24
2019-04-25T12:52:24.405Z,37.34
2019-04-25T12:54:57.223Z,36.49
2019-04-25T12:57:27.757Z,36.60
2019-04-25T12:59:58.140Z,36.69
2019-04-25T13:02:28.966Z,36.41
2019-04-25T13:04:59.782Z,36.38
2019-04-25T13:07:30.190Z,36.20
2019-04-25T13:10:00.645Z,35.44
2019-04-25T13:12:31.248Z,35.34
2019-04-25T13:15:01.839Z,35.57
2019-04-25T13:17:33.721Z,33.77
2019-04-25T13:20:07.559Z,33.24
2019-04-25T13:22:38.401Z,31.23
2019-04-25T13:25:09.181Z,32.44
2019-04-25T13:27:39.123Z,32.43
2019-04-25T13:30:11.583Z,32.52
2019-04-25T13:32:59.910Z,32.23
2019-04-25T13:35:47.326Z,32.00
2019-04-25T13:38:18.031Z,31.32
2019-04-25T13:40:48.091Z,32.31
2019-04-25T13:43:18.581Z,32.38
2019-04-25T13:45:48.913Z,32.24
2019-04-25T13:48:19.474Z,32.77
2019-04-25T13:50:51.317Z,32.75
2019-04-25T13:53:23.281Z,32.45
2019-04-25T13:55:54.221Z,33.46
2019-04-25T13:58:25.508Z,34.08
2019-04-25T14:00:56.083Z,34.97
2019-04-25T14:03:30.050Z,35.92
2019-04-25T14:06:00.001Z,36.81
2019-04-25T14:08:29.989Z,37.35
2019-04-25T14:11:01.295Z,38.47
2019-04-25T14:13:31.323Z,38.71
2019-04-25T14:16:03.983Z,39.17
2019-04-25T14:18:41.337Z,40.61
2019-04-25T14:21:16.353Z,41.01
2019-04-25T14:23:46.513Z,41.62
2019-04-25T14:26:17.287Z,42.26
2019-04-25T14:28:47.375Z,42.88
2019-04-25T14:31:35.352Z,42.68
2019-04-25T14:33:51.782Z,42.66
2019-04-25T14:36:24.696Z,42.94
2019-04-25T14:38:54.442Z,43.90
2019-04-25T14:41:24.465Z,43.55
2019-04-25T14:43:54.244Z,43.26
2019-04-25T14:46:26.530Z,43.13
2019-04-25T14:48:57.463Z,43.42
2019-04-25T14:51:28.138Z,43.53
2019-04-25T14:53:59.312Z,43.14
2019-04-25T14:56:36.515Z,43.55
2019-04-25T14:59:07.205Z,43.67
2019-04-25T15:01:44.529Z,43.87
2019-04-25T15:04:08.649Z,43.70
2019-04-25T15:06:38.232Z,43.77
2019-04-25T15:09:08.221Z,43.49
2019-04-25T15:11:38.098Z,43.66
2019-04-25T15:14:07.939Z,44.29
2019-04-25T15:16:37.756Z,44.76
2019-04-25T15:19:08.245Z,44.54
2019-04-25T15:21:37.969Z,44.52
2019-04-25T15:24:07.807Z,44.76
2019-04-25T15:26:40.257Z,45.07
2019-04-25T15:29:09.450Z,45.02
2019-04-25T15:31:39.482Z,44.82
2019-04-25T15:34:09.749Z,44.55
2019-04-25T15:36:41.433Z,44.65
2019-04-25T15:39:12.810Z,44.34
2019-04-25T15:41:47.319Z,44.00
2019-04-25T15:44:39.251Z,43.83
2019-04-25T15:47:10.729Z,44.63
2019-04-25T15:49:40.782Z,44.60
2019-04-25T15:52:12.962Z,44.55
2019-04-25T15:54:42.879Z,44.49
2019-04-25T15:57:12.755Z,44.67
2019-04-25T15:59:42.577Z,44.37
2019-04-25T16:02:13.929Z,44.36
2019-04-25T16:04:43.948Z,44.52
2019-04-25T16:07:14.302Z,44.54
2019-04-25T16:09:44.126Z,44.56
2019-04-25T16:12:15.384Z,44.50
2019-04-25T16:14:45.022Z,44.58
2019-04-25T16:17:14.707Z,44.46
2019-04-25T16:19:45.176Z,44.40
2019-04-25T16:22:14.908Z,44.57
2019-04-25T16:24:44.763Z,44.32
2019-04-25T16:27:14.592Z,44.33
2019-04-25T16:29:44.426Z,44.36
2019-04-25T16:32:20.604Z,44.39
2019-04-25T16:34:48.592Z,43.98
2019-04-25T16:37:18.618Z,43.90
2019-04-25T16:39:48.238Z,43.98
2019-04-25T16:42:17.922Z,44.05
2019-04-25T16:44:48.808Z,44.14
2019-04-25T16:47:20.224Z,43.92
2019-04-25T16:49:50.055Z,43.89
2019-04-25T16:52:21.547Z,44.04
2019-04-25T16:54:52.172Z,44.13
2019-04-25T16:57:22.314Z,44.19
2019-04-25T16:59:52.087Z,44.28
2019-04-25T17:02:32.396Z,44.19
2019-04-25T17:04:54.968Z,44.16
2019-04-25T17:07:24.977Z,44.29
2019-04-25T17:09:54.549Z,44.42
2019-04-25T17:12:24.347Z,44.67
2019-04-25T17:14:55.939Z,44.86
2019-04-25T17:17:27.219Z,44.71
2019-04-25T17:20:13.141Z,44.90
2019-04-25T17:22:43.988Z,44.79
2019-04-25T17:25:14.027Z,44.91
2019-04-25T17:27:43.840Z,45.01
2019-04-25T17:30:14.395Z,45.17
2019-04-25T17:32:53.865Z,45.38
2019-04-25T17:35:34.144Z,45.27
2019-04-25T17:38:19.403Z,45.32
2019-04-25T17:40:48.724Z,45.20
2019-04-25T17:43:18.347Z,44.95
2019-04-25T17:45:48.093Z,44.80
2019-04-25T17:48:17.766Z,45.17
2019-04-25T17:50:47.608Z,45.19
2019-04-25T17:53:17.381Z,45.33
2019-04-25T17:55:46.935Z,45.21
2019-04-25T17:58:16.668Z,45.06
2019-04-25T18:00:48.715Z,44.90
2019-04-25T18:03:20.167Z,44.90
2019-04-25T18:05:50.055Z,44.75
2019-04-25T18:08:23.719Z,44.48
2019-04-25T18:10:55.110Z,44.42
2019-04-25T18:13:24.621Z,44.82
2019-04-25T18:16:03.614Z,44.95
2019-04-25T18:18:41.435Z,45.04
2019-04-25T18:21:11.205Z,45.04
2019-04-25T18:23:54.492Z,45.00
2019-04-25T18:26:31.501Z,45.10
2019-04-25T18:29:02.747Z,45.24
2019-04-25T18:31:32.517Z,45.47
2019-04-25T18:34:03.959Z,45.53
2019-04-25T18:36:36.088Z,45.60
2019-04-25T18:39:08.201Z,45.82
2019-04-25T18:41:43.907Z,46.08
2019-04-25T18:44:14.866Z,46.24
2019-04-25T18:46:45.829Z,46.34
2019-04-25T18:49:15.384Z,46.52
2019-04-25T18:51:56.419Z,46.45
2019-04-25T18:54:27.100Z,46.80
2019-04-25T18:56:58.024Z,46.92
2019-04-25T18:59:44.618Z,46.98
2019-04-25T19:02:21.266Z,46.86
2019-04-25T19:04:52.163Z,46.45
2019-04-25T19:07:22.808Z,46.95
2019-04-25T19:09:52.260Z,47.29
2019-04-25T19:12:21.601Z,47.55
2019-04-25T19:14:51.728Z,47.47
2019-04-25T19:17:22.123Z,47.36
2019-04-25T19:19:51.984Z,47.30
2019-04-25T19:22:21.588Z,47.22
2019-04-25T19:24:50.856Z,47.18
2019-04-25T19:27:23.902Z,47.17
2019-04-25T19:29:53.524Z,47.09
2019-04-25T19:32:22.989Z,46.85
2019-04-25T19:34:52.249Z,47.08
2019-04-25T19:37:21.564Z,47.12
2019-04-25T19:40:08.481Z,46.94
2019-04-25T19:42:44.799Z,47.44
2019-04-25T19:45:15.350Z,47.51
2019-04-25T19:47:45.055Z,47.52
2019-04-25T19:50:14.494Z,47.73
2019-04-25T19:52:43.890Z,47.49
2019-04-25T19:55:13.355Z,47.11
2019-04-25T19:57:43.761Z,47.24
2019-04-25T20:00:13.110Z,47.05
2019-04-25T20:02:44.566Z,47.24
2019-04-25T20:05:15.473Z,47.43
2019-04-25T20:07:48.182Z,47.21
2019-04-25T20:10:19.626Z,47.06
2019-04-25T20:12:52.110Z,47.00
2019-04-25T20:15:21.572Z,47.15
2019-04-25T20:17:51.873Z,47.21
2019-04-25T20:20:21.710Z,47.39
2019-04-25T20:22:50.903Z,47.36
2019-04-25T20:25:20.137Z,47.35
2019-04-25T20:27:49.373Z,47.10
2019-04-25T20:30:18.854Z,46.92
2019-04-25T20:32:49.207Z,46.69
2019-04-25T20:35:18.522Z,46.70
2019-04-25T20:37:47.740Z,46.54
2019-04-25T20:40:16.935Z,46.46
2019-04-25T20:42:48.686Z,46.42
2019-04-25T20:45:18.174Z,46.29
2019-04-25T20:47:47.932Z,46.24
2019-04-25T20:50:17.500Z,46.35
2019-04-25T20:52:47.407Z,46.47
2019-04-25T20:55:17.335Z,46.63
2019-04-25T20:57:48.404Z,46.65
2019-04-25T21:00:44.395Z,46.65
2019-04-25T21:03:13.671Z,46.77
2019-04-25T21:05:43.775Z,47.01
2019-04-25T21:08:13.014Z,47.00
2019-04-25T21:10:42.390Z,46.94
2019-04-25T21:13:13.312Z,46.92
2019-04-25T21:15:50.741Z,46.86
2019-04-25T21:18:30.591Z,46.87
2019-04-25T21:21:01.296Z,47.03
2019-04-25T21:23:31.435Z,47.19
2019-04-25T21:26:01.238Z,47.31
2019-04-25T21:28:30.446Z,47.39
2019-04-25T21:31:02.005Z,47.28
2019-04-25T21:33:30.712Z,47.33
2019-04-25T21:36:00.152Z,47.39
2019-04-25T21:38:31.488Z,47.46
2019-04-25T21:41:02.685Z,47.31
2019-04-25T21:43:33.727Z,47.24
2019-04-25T21:46:04.423Z,47.11
2019-04-25T21:48:34.150Z,47.13
2019-04-25T21:51:05.297Z,46.98
2019-04-25T21:53:34.605Z,47.14
2019-04-25T21:56:04.127Z,46.87
2019-04-25T21:58:33.471Z,47.12
2019-04-25T22:01:04.697Z,47.10
2019-04-25T22:03:34.140Z,47.09
2019-04-25T22:06:05.122Z,46.94
2019-04-25T22:08:35.542Z,46.96
2019-04-25T22:11:05.538Z,46.95
2019-04-25T22:13:35.350Z,46.99
2019-04-25T22:16:05.870Z,47.14
2019-04-25T22:18:35.642Z,47.16
2019-04-25T22:21:05.191Z,47.15
2019-04-25T22:23:35.531Z,47.11
2019-04-25T22:26:05.139Z,47.10
2019-04-25T22:28:35.739Z,47.13
2019-04-25T22:31:07.599Z,47.09
2019-04-25T22:33:38.832Z,46.96
2019-04-25T22:36:15.484Z,47.01
2019-04-25T22:38:46.753Z,47.20
2019-04-25T22:41:16.124Z,47.11
2019-04-25T22:43:47.402Z,47.13
2019-04-25T22:46:25.799Z,47.22
2019-04-25T22:48:48.280Z,47.24
2019-04-25T22:51:17.696Z,47.34
2019-04-25T22:53:47.726Z,47.49
2019-04-25T22:56:17.091Z,47.48
2019-04-25T22:58:46.361Z,47.58
2019-04-25T23:01:23.253Z,47.62
2019-04-25T23:03:54.094Z,47.59
2019-04-25T23:06:23.631Z,47.46
2019-04-25T23:08:52.881Z,47.39
2019-04-25T23:11:22.113Z,47.56
2019-04-25T23:13:51.534Z,47.42
2019-04-25T23:16:21.036Z,47.26
2019-04-25T23:18:50.259Z,47.16
2019-04-25T23:21:19.530Z,47.16
2019-04-25T23:23:48.784Z,46.98
2019-04-25T23:26:26.103Z,46.87
2019-04-25T23:28:59.766Z,46.86
2019-04-25T23:31:33.559Z,46.73
2019-04-25T23:34:04.508Z,46.66
2019-04-25T23:36:34.434Z,46.56
2019-04-25T23:39:07.251Z,46.53
2019-04-25T23:41:36.726Z,46.43
2019-04-25T23:44:07.008Z,46.25
2019-04-25T23:46:37.085Z,46.20
2019-04-25T23:49:07.898Z,46.36
2019-04-25T23:51:37.535Z,46.49
2019-04-25T23:54:07.596Z,46.40
2019-04-25T23:56:37.084Z,46.44
2019-04-25T23:59:08.308Z,46.41
